Time;durP1;ratioP1;P1;durP2;ratioP2;P2;SDS_P1;SDS_P2;PMS_P1;PMS_P2;Temp;Humidity;BMP_temperature;BMP_pressure;BME280_temperature;BME280_humidity;BME280_pressure;Samples;Min_cycle;Max_cycle;Signal;HPM_P1;HPM_P2
2023/07/07 00:02:21;;;;;;;5.88;5.38;;;;;;;20.94;99.70;94646.50;5092086;28;20201;-42
2023/07/07 00:04:48;;;;;;;7.78;6.68;;;;;;;21.05;99.45;94664.91;5092311;28;20197;-44
2023/07/07 00:07:15;;;;;;;9.38;6.03;;;;;;;21.10;99.81;94671.28;5091912;28;20205;-44
2023/07/07 00:09:43;;;;;;;6.68;5.97;;;;;;;21.04;99.84;94671.09;5091823;28;20194;-45
2023/07/07 00:12:13;;;;;;;9.60;6.47;;;;;;;21.04;99.31;94668.50;5073838;28;20646;-44
2023/07/07 00:14:39;;;;;;;6.10;5.50;;;;;;;21.10;99.40;94676.50;5091625;28;20649;-46
2023/07/07 00:17:06;;;;;;;6.22;5.63;;;;;;;21.10;99.39;94666.09;5091668;28;20197;-44
2023/07/07 00:19:36;;;;;;;7.53;5.70;;;;;;;21.11;99.38;94671.09;5092045;28;20197;-44
2023/07/07 00:22:06;;;;;;;6.72;6.13;;;;;;;21.12;98.87;94670.09;5091472;28;20223;-45
2023/07/07 00:24:33;;;;;;;7.65;6.20;;;;;;;21.07;99.07;94658.69;5091610;28;20193;-45
2023/07/07 00:27:02;;;;;;;6.55;5.95;;;;;;;21.08;98.80;94665.50;5091065;28;20221;-45
2023/07/07 00:29:31;;;;;;;7.28;6.20;;;;;;;21.08;99.26;94663.72;5091254;28;20705;-45
2023/07/07 00:31:59;;;;;;;6.90;6.10;;;;;;;21.08;98.88;94665.50;5091670;28;20193;-44
2023/07/07 00:34:26;;;;;;;6.88;5.65;;;;;;;21.06;98.75;94665.69;5091670;28;20620;-46
2023/07/07 00:36:54;;;;;;;6.65;5.97;;;;;;;21.05;99.13;94659.69;5091170;28;20296;-44
2023/07/07 00:39:21;;;;;;;8.25;6.20;;;;;;;21.06;98.96;94665.69;5091018;28;20186;-44
2023/07/07 00:41:49;;;;;;;7.20;6.50;;;;;;;21.03;99.19;94643.50;5091364;28;20227;-44
2023/07/07 00:44:16;;;;;;;7.75;6.32;;;;;;;21.11;98.94;94670.28;5073349;28;20216;-45
2023/07/07 00:46:44;;;;;;;6.78;5.97;;;;;;;21.11;99.02;94670.28;5089681;28;20270;-47
2023/07/07 00:49:18;;;;;;;7.38;5.88;;;;;;;21.08;99.47;94674.09;5091367;28;20189;-45
2023/07/07 00:51:51;;;;;;;7.07;6.38;;;;;;;21.10;99.20;94676.50;5090715;28;20204;-42
2023/07/07 00:54:24;;;;;;;7.00;6.38;;;;;;;21.08;99.29;94674.09;5091087;28;20189;-45
2023/07/07 00:56:54;;;;;;;7.03;6.43;;;;;;;20.95;99.36;94666.34;5090625;28;20669;-44
2023/07/07 00:59:27;;;;;;;6.88;6.15;;;;;;;20.95;99.24;94667.13;5091474;28;20190;-45
2023/07/07 01:02:00;;;;;;;7.60;6.75;;;;;;;20.88;99.06;94657.72;5073669;28;20186;-44
2023/07/07 01:04:29;;;;;;;7.10;6.45;;;;;;;21.04;98.92;94688.50;5091691;28;20197;-45
2023/07/07 01:07:07;;;;;;;9.13;7.07;;;;;;;21.02;99.27;94686.09;5091196;28;20303;-45
2023/07/07 01:09:34;;;;;;;6.65;6.03;;;;;;;21.01;99.54;94688.91;5091397;28;20182;-46
2023/07/07 01:12:01;;;;;;;7.18;6.47;;;;;;;21.01;99.23;94683.72;5090605;28;20210;-44
2023/07/07 01:14:31;;;;;;;7.75;6.88;;;;;;;21.02;99.22;94682.69;5090938;28;20197;-47
2023/07/07 01:17:09;;;;;;;7.50;6.80;;;;;;;21.00;99.27;94684.72;5090092;28;20640;-43
2023/07/07 01:20:21;;;;;;;7.35;6.65;;;;;;;21.00;99.58;94679.53;5092059;28;20189;-46
2023/07/07 01:23:25;;;;;;;7.35;6.60;;;;;;;20.99;99.46;94680.53;5027560;28;20806;-45
2023/07/07 01:26:22;;;;;;;9.80;7.25;;;;;;;20.98;99.48;94682.31;5027767;28;20183;-45
2023/07/07 01:29:15;;;;;;;10.77;8.05;;;;;;;20.97;99.54;94683.31;5027388;28;20239;-44
2023/07/07 01:31:50;;;;;;;8.27;7.47;;;;;;;20.98;99.18;94678.91;5026354;28;20263;-46
2023/07/07 01:34:18;;;;;;;8.45;7.25;;;;;;;20.97;99.23;94678.09;5027783;28;20195;-44
2023/07/07 01:36:46;;;;;;;8.07;7.25;;;;;;;20.99;98.80;94683.91;5027524;28;20211;-46
2023/07/07 01:39:14;;;;;;;8.40;7.60;;;;;;;20.99;98.76;94685.72;5027605;28;20180;-46
2023/07/07 01:41:48;;;;;;;8.07;7.28;;;;;;;20.96;98.31;94684.31;5027526;28;20203;-44
2023/07/07 01:44:23;;;;;;;8.07;7.28;;;;;;;20.93;98.35;94686.50;5027414;28;20246;-44
2023/07/07 01:46:57;;;;;;;9.48;7.68;;;;;;;20.94;98.26;94688.09;5027605;28;20212;-44
2023/07/07 01:49:30;;;;;;;9.55;8.15;;;;;;;20.91;98.95;94683.34;5027620;28;20196;-43
2023/07/07 01:52:02;;;;;;;10.73;7.70;;;;;;;20.85;98.93;94679.72;5027251;28;20203;-42
2023/07/07 01:54:32;;;;;;;9.27;8.38;;;;;;;20.87;99.26;94689.94;5083780;28;20194;-43
2023/07/07 01:57:01;;;;;;;14.85;9.07;;;;;;;20.85;99.38;94682.31;5089762;28;20284;-46
2023/07/07 01:59:28;;;;;;;11.70;8.73;;;;;;;20.84;99.65;94687.72;5089913;28;20194;-46
2023/07/07 02:01:58;;;;;;;10.38;8.93;;;;;;;20.83;99.97;94683.53;5089748;28;20270;-45
2023/07/07 02:04:25;;;;;;;10.27;9.27;;;;;;;20.83;99.95;94680.94;5090111;28;20538;-43
2023/07/07 02:06:51;;;;;;;9.75;8.75;;;;;;;20.84;100.00;94677.31;5089681;28;20192;-46
2023/07/07 02:09:18;;;;;;;9.75;8.82;;;;;;;20.82;100.00;94671.53;5089599;28;20192;-46
2023/07/07 02:11:45;;;;;;;11.18;9.70;;;;;;;20.85;100.00;94679.72;5089732;28;20190;-45
2023/07/07 02:14:12;;;;;;;10.25;8.98;;;;;;;20.88;100.00;94679.31;5089469;28;20202;-43
2023/07/07 02:16:39;;;;;;;10.13;9.15;;;;;;;20.84;100.00;94666.94;5089631;28;20255;-45
2023/07/07 02:19:08;;;;;;;9.73;8.82;;;;;;;20.92;100.00;94682.31;5089520;28;20197;-44
2023/07/07 02:21:35;;;;;;;11.55;10.45;;;;;;;20.89;100.00;94672.31;5089957;28;20668;-43
2023/07/07 02:24:02;;;;;;;11.70;10.50;;;;;;;20.91;100.00;94683.34;5089564;28;20185;-44
2023/07/07 02:26:29;;;;;;;11.85;10.65;;;;;;;20.89;100.00;94675.72;5089605;28;20197;-44
2023/07/07 02:28:56;;;;;;;11.82;10.63;;;;;;;20.89;100.00;94680.91;5089103;28;20684;-45
2023/07/07 02:31:24;;;;;;;11.38;10.27;;;;;;;20.89;100.00;94683.50;5089826;28;20689;-45
2023/07/07 02:33:51;;;;;;;13.10;10.65;;;;;;;20.93;100.00;94684.72;5089495;28;20574;-44
2023/07/07 02:36:19;;;;;;;13.88;11.05;;;;;;;20.98;100.00;94684.09;5092192;28;20272;-45
2023/07/07 02:38:46;;;;;;;12.02;10.93;;;;;;;20.95;100.00;94680.13;5093972;28;20280;-45
2023/07/07 02:41:13;;;;;;;12.32;11.23;;;;;;;20.83;100.00;94662.75;5093654;28;20696;-46
2023/07/07 02:43:41;;;;;;;12.20;11.05;;;;;;;20.94;100.00;94675.09;5093500;28;20671;-44
2023/07/07 02:46:08;;;;;;;14.93;10.65;;;;;;;20.95;100.00;94679.31;5093478;28;20198;-44
2023/07/07 02:48:35;;;;;;;13.48;11.02;;;;;;;20.95;100.00;94674.94;5093783;28;20232;-45
2023/07/07 02:51:03;;;;;;;12.30;11.00;;;;;;;20.94;100.00;94677.72;5093207;28;20194;-44
2023/07/07 02:53:34;;;;;;;11.85;10.57;;;;;;;20.94;100.00;94675.94;5093690;28;20189;-44
2023/07/07 02:56:00;;;;;;;16.60;11.45;;;;;;;20.92;100.00;94683.13;5093277;28;20185;-44
2023/07/07 02:58:28;;;;;;;14.48;11.15;;;;;;;20.92;100.00;94688.31;5093285;28;20193;-45
2023/07/07 03:01:10;;;;;;;11.45;10.30;;;;;;;20.91;100.00;94689.31;5093090;28;20193;-45
2023/07/07 03:03:38;;;;;;;12.05;10.82;;;;;;;20.91;100.00;94693.72;5093165;28;20204;-44
2023/07/07 03:06:10;;;;;;;13.80;10.20;;;;;;;20.90;100.00;94690.34;5093104;28;20220;-46
2023/07/07 03:08:38;;;;;;;13.38;11.75;;;;;;;20.92;100.00;94697.91;5093491;28;20220;-43
2023/07/07 03:11:06;;;;;;;13.70;11.93;;;;;;;20.92;100.00;94690.91;5093718;28;20186;-45
2023/07/07 03:13:33;;;;;;;13.43;12.13;;;;;;;20.95;100.00;94707.94;5094636;28;20215;-45
2023/07/07 03:16:06;;;;;;;11.68;10.45;;;;;;;20.95;99.88;94694.94;5093480;28;20734;-46
2023/07/07 03:18:33;;;;;;;13.95;11.82;;;;;;;20.93;99.58;94689.13;5093134;28;20189;-42
2023/07/07 03:21:00;;;;;;;14.23;12.68;;;;;;;21.01;99.50;94688.91;5092886;28;20208;-47
2023/07/07 03:23:28;;;;;;;13.70;12.02;;;;;;;21.07;99.56;94695.09;5092953;28;20671;-45
2023/07/07 03:25:57;;;;;;;14.32;11.82;;;;;;;21.13;99.30;94699.50;5092555;28;20680;-45
2023/07/07 03:28:24;;;;;;;14.00;12.48;;;;;;;21.16;98.95;94691.31;5091915;28;20728;-45
2023/07/07 03:30:50;;;;;;;14.43;12.82;;;;;;;21.22;98.87;94693.09;5091502;28;20285;-46
2023/07/07 03:33:17;;;;;;;15.00;13.35;;;;;;;21.27;98.31;94706.28;5092137;28;20212;-46
2023/07/07 03:35:44;;;;;;;14.27;12.77;;;;;;;21.35;98.09;94697.50;5091674;28;20190;-46
2023/07/07 03:38:12;;;;;;;15.25;13.50;;;;;;;21.44;97.25;94702.25;5091447;28;20193;-45
2023/07/07 03:40:47;;;;;;;16.23;13.23;;;;;;;21.53;96.76;94698.41;5091478;28;20201;-45
2023/07/07 03:43:18;;;;;;;14.55;12.60;;;;;;;21.57;96.97;94700.63;5091368;28;20271;-45
2023/07/07 03:45:45;;;;;;;13.77;12.38;;;;;;;21.64;96.65;94701.41;5090701;28;20712;-45
2023/07/07 03:48:12;;;;;;;17.33;14.70;;;;;;;21.71;96.43;94705.56;5091427;28;20213;-45
2023/07/07 03:50:39;;;;;;;15.00;13.50;;;;;;;21.78;95.90;94695.13;5091578;28;20254;-42
2023/07/07 03:53:06;;;;;;;14.85;13.35;;;;;;;21.92;95.29;94707.09;5090921;28;20212;-46
2023/07/07 03:55:32;;;;;;;17.55;13.95;;;;;;;21.88;94.43;94666.06;5091451;28;20213;-46
2023/07/07 03:57:59;;;;;;;15.05;13.55;;;;;;;22.14;94.14;94689.38;5091218;28;20477;-47
2023/07/07 04:00:28;;;;;;;15.63;13.77;;;;;;;22.34;93.37;94697.09;5091158;28;20745;-43
2023/07/07 04:02:54;;;;;;;15.35;13.75;;;;;;;22.48;93.07;94706.41;5090814;28;20193;-44
2023/07/07 04:05:21;;;;;;;15.73;13.60;;;;;;;22.61;93.07;94713.34;5091213;28;20190;-45
2023/07/07 04:07:48;;;;;;;15.40;13.77;;;;;;;22.75;92.34;94716.63;5090994;28;20221;-43
2023/07/07 04:10:16;;;;;;;18.05;14.65;;;;;;;22.88;91.49;94716.53;5091054;28;20200;-46
2023/07/07 04:12:43;;;;;;;15.38;13.88;;;;;;;23.01;90.62;94715.66;5090653;28;20550;-45
2023/07/07 04:15:11;;;;;;;15.93;13.43;;;;;;;23.16;89.82;94717.94;5090946;28;20276;-45
2023/07/07 04:17:39;;;;;;;17.52;14.73;;;;;;;23.23;89.78;94721.31;5090887;28;20190;-45
2023/07/07 04:20:07;;;;;;;16.90;15.10;;;;;;;23.42;88.27;94719.50;5090685;28;20224;-46
2023/07/07 04:22:33;;;;;;;16.20;14.07;;;;;;;23.58;87.20;94720.75;5090789;28;20178;-46
2023/07/07 04:25:12;;;;;;;16.50;14.85;;;;;;;23.66;87.16;94710.84;5090582;28;20178;-45
2023/07/07 04:27:39;;;;;;;14.88;13.38;;;;;;;23.81;86.04;94707.84;5050469;28;1139916;-45
2023/07/07 04:30:07;;;;;;;15.98;14.27;;;;;;;23.95;85.71;94711.09;5091585;28;20665;-46
2023/07/07 04:32:34;;;;;;;15.93;13.90;;;;;;;24.03;85.55;94710.78;5091634;28;20194;-46
2023/07/07 04:35:03;;;;;;;18.98;14.55;;;;;;;24.18;84.61;94713.81;5091339;28;20185;-44
2023/07/07 04:37:30;;;;;;;15.57;13.82;;;;;;;24.32;83.57;94713.63;5091862;28;20185;-47
2023/07/07 04:39:57;;;;;;;18.50;13.93;;;;;;;24.43;82.80;94707.66;5091408;28;20198;-45
2023/07/07 04:42:24;;;;;;;15.77;14.25;;;;;;;24.50;82.53;94708.38;5091275;28;20182;-44
2023/07/07 04:44:51;;;;;;;16.90;14.30;;;;;;;24.50;82.02;94705.75;5090986;28;20198;-46
2023/07/07 04:47:18;;;;;;;14.73;13.10;;;;;;;24.67;81.95;94719.78;5091405;28;20197;-46
2023/07/07 04:49:44;;;;;;;17.63;14.05;;;;;;;24.73;81.04;94716.25;5090837;28;20221;-46
2023/07/07 04:52:13;;;;;;;18.60;14.60;;;;;;;24.75;81.73;94729.13;5091289;28;20254;-46
2023/07/07 04:54:39;;;;;;;18.27;14.20;;;;;;;24.74;81.64;94730.94;5091073;28;20291;-45
2023/07/07 04:57:06;;;;;;;20.70;14.38;;;;;;;24.74;81.82;94737.97;5091023;28;20201;-46
2023/07/07 04:59:33;;;;;;;16.33;14.02;;;;;;;24.81;81.17;94743.91;5090187;28;20190;-46
2023/07/07 05:02:00;;;;;;;15.73;13.88;;;;;;;24.71;80.49;94715.69;5091291;28;20185;-46
2023/07/07 05:04:27;;;;;;;15.20;13.55;;;;;;;24.85;80.47;94728.56;5090681;28;20216;-45
2023/07/07 05:06:54;;;;;;;17.27;15.25;;;;;;;24.78;80.79;94723.44;5090873;28;20288;-44
2023/07/07 05:09:24;;;;;;;15.70;14.15;;;;;;;24.78;81.11;94739.13;5091035;28;20392;-45
2023/07/07 05:11:51;;;;;;;16.85;14.30;;;;;;;24.78;81.68;94734.72;5091374;28;20212;-45
2023/07/07 05:14:17;;;;;;;15.18;13.57;;;;;;;24.70;82.39;94732.41;5091869;28;20185;-44
2023/07/07 05:16:44;;;;;;;17.08;14.80;;;;;;;24.76;82.10;94730.72;5090627;28;20189;-44
2023/07/07 05:19:11;;;;;;;18.17;14.43;;;;;;;24.74;81.81;94732.75;5090677;28;20193;-45
2023/07/07 05:21:39;;;;;;;16.38;14.77;;;;;;;24.75;82.70;94734.38;5090571;28;20247;-46
2023/07/07 05:24:06;;;;;;;20.38;14.45;;;;;;;24.63;83.32;94725.69;5090947;28;20193;-47
2023/07/07 05:26:34;;;;;;;19.00;15.02;;;;;;;24.72;83.29;94732.97;5090688;28;20194;-45
2023/07/07 05:29:02;;;;;;;18.98;15.18;;;;;;;24.87;83.01;94731.75;5090312;28;20233;-45
2023/07/07 05:31:30;;;;;;;15.55;14.00;;;;;;;25.04;81.91;94743.16;5090401;28;20774;-46
2023/07/07 05:33:57;;;;;;;21.88;14.18;;;;;;;25.17;80.55;94731.69;5090200;28;20633;-47
2023/07/07 05:36:24;;;;;;;15.70;14.05;;;;;;;25.31;80.83;94729.66;5090171;28;20669;-46
2023/07/07 05:38:51;;;;;;;17.95;13.65;;;;;;;25.53;78.38;94749.78;5090366;28;20734;-46
2023/07/07 05:41:17;;;;;;;14.68;12.93;;;;;;;25.55;77.96;94739.06;5090069;28;20692;-45
2023/07/07 05:43:45;;;;;;;17.45;13.73;;;;;;;25.55;78.47;94740.91;5090504;28;20194;-46
2023/07/07 05:46:16;;;;;;;16.13;14.15;;;;;;;25.64;77.89;94752.63;5090211;28;20243;-46
2023/07/07 05:48:43;;;;;;;14.75;12.88;;;;;;;25.73;76.91;94756.47;5090389;28;20229;-44
2023/07/07 05:51:13;;;;;;;19.65;14.00;;;;;;;25.70;76.97;94752.50;5090173;28;20197;-46
2023/07/07 05:53:42;;;;;;;15.02;13.25;;;;;;;25.68;76.34;94759.00;5090644;28;20186;-45
2023/07/07 05:56:14;;;;;;;16.15;14.43;;;;;;;25.60;76.64;94765.38;5090059;28;20239;-45
2023/07/07 05:58:40;;;;;;;16.60;14.35;;;;;;;25.55;76.92;94764.47;5090560;28;20287;-44
2023/07/07 06:01:10;;;;;;;16.85;14.18;;;;;;;25.48;77.35;94767.22;5089540;28;20186;-45
2023/07/07 06:03:39;;;;;;;17.40;13.88;;;;;;;25.40;77.61;94762.34;5090116;28;20197;-45
2023/07/07 06:06:05;;;;;;;18.10;14.45;;;;;;;25.46;77.56;94766.66;5090180;28;20544;-49
2023/07/07 06:08:32;;;;;;;15.30;13.80;;;;;;;25.42;78.18;94760.28;5089730;28;20719;-46
2023/07/07 06:11:00;;;;;;;17.15;14.57;;;;;;;25.45;78.22;94763.22;5089964;28;20228;-47
2023/07/07 06:13:28;;;;;;;17.17;14.32;;;;;;;25.38;77.72;94733.75;5089997;28;20213;-48
2023/07/07 06:15:55;;;;;;;17.58;14.60;;;;;;;25.72;76.64;94768.00;5089917;28;20342;-46
2023/07/07 06:18:24;;;;;;;15.52;13.85;;;;;;;25.88;76.70;94758.66;5089925;28;20198;-46
2023/07/07 06:20:52;;;;;;;19.20;13.55;;;;;;;26.08;75.20;94760.88;5089985;28;20559;-46
2023/07/07 06:23:18;;;;;;;17.30;14.80;;;;;;;26.24;73.74;94763.56;5089997;28;20186;-47
2023/07/07 06:25:47;;;;;;;13.25;11.95;;;;;;;26.41;73.41;94765.44;5089949;28;20603;-45
2023/07/07 06:28:14;;;;;;;14.80;12.70;;;;;;;26.57;72.73;94771.81;5089806;28;20236;-47
2023/07/07 06:30:40;;;;;;;16.42;14.00;;;;;;;26.71;71.00;94773.88;5089764;28;20646;-47
2023/07/07 06:33:07;;;;;;;15.90;12.70;;;;;;;26.57;72.25;94750.81;5089595;28;20198;-45
2023/07/07 06:35:36;;;;;;;17.55;12.50;;;;;;;26.83;71.10;94773.84;5090173;28;20681;-46
2023/07/07 06:38:04;;;;;;;14.90;13.07;;;;;;;26.75;71.18;94763.72;5090323;28;20573;-46
2023/07/07 06:40:31;;;;;;;15.40;13.13;;;;;;;26.87;71.01;94776.78;5090210;28;20177;-47
2023/07/07 06:42:58;;;;;;;14.88;13.43;;;;;;;27.02;70.22;94775.19;5089696;28;20607;-46
2023/07/07 06:45:25;;;;;;;13.98;12.40;;;;;;;27.23;69.99;94773.72;5089535;28;20513;-47
2023/07/07 06:47:51;;;;;;;14.10;12.70;;;;;;;27.34;69.44;94779.94;5089780;28;20190;-46
2023/07/07 06:50:26;;;;;;;13.40;12.05;;;;;;;27.45;67.51;94762.47;5089353;28;20713;-46
2023/07/07 06:52:54;;;;;;;17.33;12.57;;;;;;;27.67;67.88;94780.91;5089796;28;20224;-47
2023/07/07 06:55:21;;;;;;;12.95;11.65;;;;;;;27.84;66.89;94780.91;5089412;28;20197;-48
2023/07/07 06:57:49;;;;;;;12.68;10.70;;;;;;;28.09;66.11;94786.50;5089541;28;20197;-47
2023/07/07 07:00:16;;;;;;;14.30;11.25;;;;;;;28.43;64.89;94792.44;5089331;28;20225;-44
2023/07/07 07:02:43;;;;;;;13.40;12.00;;;;;;;28.56;62.62;94799.16;5089808;28;20194;-46
2023/07/07 07:05:10;;;;;;;16.35;11.80;;;;;;;28.47;62.19;94800.63;5089479;28;20252;-46
2023/07/07 07:07:37;;;;;;;12.63;11.10;;;;;;;28.31;63.64;94804.09;5089616;28;20197;-46
2023/07/07 07:10:07;;;;;;;13.90;11.50;;;;;;;28.18;63.58;94800.78;5089583;28;20229;-46
2023/07/07 07:12:34;;;;;;;12.18;10.57;;;;;;;28.07;64.04;94798.31;5089798;28;20258;-47
2023/07/07 07:15:00;;;;;;;14.30;11.35;;;;;;;27.97;64.48;94793.69;5089551;28;20186;-45
2023/07/07 07:17:27;;;;;;;11.50;10.32;;;;;;;27.92;64.29;94801.50;5089401;28;20194;-44
2023/07/07 07:19:54;;;;;;;14.35;11.15;;;;;;;27.83;64.72;94800.34;5089201;28;20229;-47
2023/07/07 07:22:21;;;;;;;12.30;11.10;;;;;;;27.70;65.23;94801.47;5092217;28;20186;-47
2023/07/07 07:24:48;;;;;;;13.32;10.75;;;;;;;27.63;66.31;94804.25;5093076;28;20649;-44
2023/07/07 07:27:16;;;;;;;13.45;11.32;;;;;;;27.49;65.97;94801.16;5093133;28;20185;-45
2023/07/07 07:29:45;;;;;;;12.75;11.50;;;;;;;26.77;66.22;94691.63;5093095;28;20221;-46
2023/07/07 07:32:13;;;;;;;12.00;10.73;;;;;;;27.48;66.17;94820.59;5092703;28;20197;-45
2023/07/07 07:34:40;;;;;;;18.25;11.48;;;;;;;27.34;66.26;94819.34;5093231;28;20185;-46
2023/07/07 07:37:08;;;;;;;17.90;11.82;;;;;;;27.12;67.66;94811.38;5092904;28;20197;-47
2023/07/07 07:39:35;;;;;;;13.32;11.63;;;;;;;27.14;68.31;94819.00;5092661;28;20225;-46
2023/07/07 07:42:03;;;;;;;11.25;10.20;;;;;;;27.16;68.15;94815.13;5092267;28;20634;-45
2023/07/07 07:44:31;;;;;;;14.73;11.30;;;;;;;27.22;68.61;94818.59;5093043;28;20204;-48
2023/07/07 07:46:59;;;;;;;14.68;10.85;;;;;;;27.37;68.39;94825.91;5092474;28;20194;-46
2023/07/07 07:49:28;;;;;;;12.60;11.40;;;;;;;27.55;68.40;94824.88;5092761;28;20232;-47
2023/07/07 07:51:55;;;;;;;13.07;11.68;;;;;;;27.69;67.34;94816.44;5092262;28;20186;-47
2023/07/07 07:54:23;;;;;;;14.13;11.38;;;;;;;27.98;67.25;94826.84;5092582;28;20193;-46
2023/07/07 07:56:51;;;;;;;17.80;11.35;;;;;;;28.45;65.71;94826.38;5092338;28;20645;-48
2023/07/07 07:59:18;;;;;;;13.40;12.05;;;;;;;28.72;64.58;94827.22;5092707;28;20193;-48
2023/07/07 08:01:46;;;;;;;14.82;11.27;;;;;;;28.94;64.08;94831.66;5092972;28;20216;-46
2023/07/07 08:04:13;;;;;;;15.10;10.90;;;;;;;29.15;63.46;94828.19;5092153;28;20680;-46
2023/07/07 08:06:41;;;;;;;12.73;11.57;;;;;;;29.08;62.70;94832.06;5092272;28;20194;-46
2023/07/07 08:09:08;;;;;;;12.65;10.70;;;;;;;28.99;62.60;94840.41;5091780;28;20202;-44
2023/07/07 08:11:57;;;;;;;11.65;10.45;;;;;;;29.04;63.09;94837.03;5092228;28;20194;-46
2023/07/07 08:14:30;;;;;;;15.60;11.57;;;;;;;29.31;62.09;94836.19;5092101;28;20222;-46
2023/07/07 08:17:01;;;;;;;11.40;10.30;;;;;;;29.32;61.43;94843.06;5092129;28;20213;-44
2023/07/07 08:19:30;;;;;;;11.25;10.13;;;;;;;29.63;61.27;94842.28;5091992;28;20195;-46
2023/07/07 08:21:57;;;;;;;12.23;10.95;;;;;;;29.94;59.31;94831.94;5091718;28;20237;-48
2023/07/07 08:24:24;;;;;;;11.70;10.50;;;;;;;30.05;59.67;94835.41;5092251;28;20280;-47
2023/07/07 08:26:51;;;;;;;12.50;10.20;;;;;;;30.06;59.89;94837.00;5092083;28;20193;-45
2023/07/07 08:29:18;;;;;;;12.23;9.70;;;;;;;29.95;59.84;94839.56;5091631;28;20715;-47
2023/07/07 08:31:45;;;;;;;11.82;10.38;;;;;;;29.76;60.18;94838.41;5073763;28;20210;-46
2023/07/07 08:34:13;;;;;;;10.35;9.05;;;;;;;29.71;60.47;94847.09;5090171;28;20193;-46
2023/07/07 08:36:40;;;;;;;14.05;9.73;;;;;;;29.91;60.30;94842.97;5091472;28;20194;-47
2023/07/07 08:39:14;;;;;;;13.02;9.85;;;;;;;30.18;60.14;94843.69;5091338;28;20196;-45
2023/07/07 08:41:47;;;;;;;11.02;9.55;;;;;;;30.36;57.98;94834.53;5091418;28;20664;-46
2023/07/07 08:44:17;;;;;;;11.45;9.45;;;;;;;30.40;57.99;94834.81;5091106;28;20178;-46
2023/07/07 08:46:56;;;;;;;11.02;9.40;;;;;;;30.59;58.23;94832.50;5091451;28;20182;-45
2023/07/07 08:49:30;;;;;;;10.95;9.85;;;;;;;30.91;57.19;94829.69;5091543;28;20217;-46
2023/07/07 08:52:04;;;;;;;14.90;9.43;;;;;;;31.00;56.20;94833.41;5091196;28;20189;-45
2023/07/07 08:54:40;;;;;;;12.32;10.00;;;;;;;31.01;55.90;94824.44;5091163;28;20246;-46
2023/07/07 08:57:09;;;;;;;10.30;9.38;;;;;;;30.84;55.82;94824.69;5091147;28;20178;-45
2023/07/07 08:59:51;;;;;;;10.88;9.65;;;;;;;30.82;56.81;94823.34;5091332;28;20201;-46
2023/07/07 09:02:33;;;;;;;12.20;9.38;;;;;;;30.78;56.71;94825.69;5090863;28;20514;-46
2023/07/07 09:05:14;;;;;;;11.02;9.70;;;;;;;30.73;55.81;94829.13;5091377;28;20185;-44
2023/07/07 09:07:59;;;;;;;11.05;9.88;;;;;;;30.65;55.35;94815.63;5092420;28;20182;-46
2023/07/07 09:10:37;;;;;;;12.60;9.73;;;;;;;30.41;55.18;94792.31;5090826;28;20278;-46
2023/07/07 09:13:09;;;;;;;9.73;8.77;;;;;;;30.35;54.85;94813.66;5091111;28;20230;-46
2023/07/07 09:15:40;;;;;;;9.93;9.02;;;;;;;30.28;56.44;94810.50;5090529;28;20184;-45
2023/07/07 09:18:17;;;;;;;11.38;9.65;;;;;;;30.34;55.26;94788.34;5090836;28;20201;-45
2023/07/07 09:20:56;;;;;;;9.38;8.35;;;;;;;30.42;54.48;94795.75;5090565;28;20644;-45
2023/07/07 09:23:29;;;;;;;11.00;9.20;;;;;;;30.46;54.21;94808.19;5091011;28;20189;-45
2023/07/07 09:26:01;;;;;;;10.35;9.35;;;;;;;30.44;55.56;94804.19;5090408;28;20189;-46
2023/07/07 09:28:30;;;;;;;10.60;9.35;;;;;;;30.51;54.97;94810.03;5090544;28;20221;-45
2023/07/07 09:31:00;;;;;;;11.07;9.57;;;;;;;30.58;54.26;94818.50;5090172;28;20229;-45
2023/07/07 09:33:27;;;;;;;11.70;8.82;;;;;;;30.48;54.85;94787.59;5090467;28;20198;-44
2023/07/07 09:36:02;;;;;;;10.82;9.75;;;;;;;30.69;54.87;94806.91;5090176;28;20185;-46
2023/07/07 09:38:44;;;;;;;10.80;9.70;;;;;;;30.65;54.89;94810.31;5090356;28;20196;-47
2023/07/07 09:41:20;;;;;;;12.00;9.07;;;;;;;30.57;55.61;94811.66;5090187;28;20273;-44
2023/07/07 09:43:59;;;;;;;10.52;9.52;;;;;;;30.57;54.78;94809.00;5089981;28;20193;-46
2023/07/07 09:46:35;;;;;;;11.05;9.70;;;;;;;30.45;56.25;94808.44;5090015;28;20588;-44
2023/07/07 09:49:10;;;;;;;9.60;8.80;;;;;;;30.36;56.03;94802.09;5090141;28;20613;-45
2023/07/07 09:51:44;;;;;;;10.30;8.50;;;;;;;30.22;55.99;94799.94;5090306;28;20192;-46
2023/07/07 09:54:14;;;;;;;9.93;8.93;;;;;;;30.21;56.29;94805.44;5090013;28;20185;-46
2023/07/07 09:56:50;;;;;;;15.55;8.90;;;;;;;30.12;55.24;94804.31;5090555;28;20205;-47
2023/07/07 09:59:21;;;;;;;9.77;8.85;;;;;;;30.10;55.58;94803.78;5089467;28;20280;-45
2023/07/07 10:01:51;;;;;;;9.23;8.27;;;;;;;30.00;55.46;94799.25;5090192;28;20274;-46
2023/07/07 10:04:20;;;;;;;9.38;8.40;;;;;;;30.10;55.75;94799.31;5090003;28;20263;-45
2023/07/07 10:06:56;;;;;;;10.10;9.00;;;;;;;30.23;55.48;94798.06;5090245;28;20182;-45
2023/07/07 10:09:22;;;;;;;9.43;8.15;;;;;;;30.27;54.62;94800.97;5089748;28;20346;-47
2023/07/07 10:11:51;;;;;;;10.07;8.68;;;;;;;30.36;55.25;94794.97;5089895;28;20661;-46
2023/07/07 10:14:18;;;;;;;9.07;7.28;;;;;;;30.57;54.24;94790.53;5089639;28;20553;-46
2023/07/07 10:16:58;;;;;;;8.52;7.72;;;;;;;30.58;53.71;94793.97;5090145;28;20208;-47
2023/07/07 10:19:26;;;;;;;9.60;7.40;;;;;;;30.45;51.11;94779.41;5089896;28;20193;-46
2023/07/07 10:21:54;;;;;;;8.60;7.80;;;;;;;30.32;52.40;94796.53;5089903;28;20200;-47
2023/07/07 10:24:21;;;;;;;11.20;8.13;;;;;;;30.28;53.38;94792.03;5071715;28;20182;-46
2023/07/07 10:26:48;;;;;;;8.82;7.90;;;;;;;30.32;53.43;94785.97;5090165;28;20193;-46
2023/07/07 10:29:21;;;;;;;8.73;7.93;;;;;;;30.48;52.87;94781.50;5089579;28;20252;-47
2023/07/07 10:31:49;;;;;;;9.07;8.25;;;;;;;30.62;53.03;94772.06;5089808;28;20193;-44
2023/07/07 10:34:27;;;;;;;9.10;7.70;;;;;;;30.84;53.02;94776.34;5089495;28;20189;-46
2023/07/07 10:36:56;;;;;;;9.38;8.45;;;;;;;30.90;51.44;94764.72;5089928;28;20276;-46
2023/07/07 10:39:24;;;;;;;9.15;7.32;;;;;;;31.08;52.42;94776.63;5089677;28;20200;-47
2023/07/07 10:41:51;;;;;;;11.77;8.75;;;;;;;31.22;51.07;94778.47;5089862;28;20588;-44
2023/07/07 10:44:18;;;;;;;9.52;8.02;;;;;;;31.13;51.20;94772.13;5089497;28;20186;-44
2023/07/07 10:46:45;;;;;;;8.98;7.75;;;;;;;30.99;51.85;94769.22;5089769;28;20221;-46
2023/07/07 10:49:17;;;;;;;8.95;8.10;;;;;;;30.93;52.75;94780.84;5089463;28;20205;-46
2023/07/07 10:51:54;;;;;;;11.23;8.05;;;;;;;30.85;53.60;94773.44;5089969;28;20232;-46
2023/07/07 10:54:34;;;;;;;10.70;8.68;;;;;;;30.95;53.03;94760.22;5089269;28;20594;-45
2023/07/07 10:57:16;;;;;;;8.95;8.05;;;;;;;31.08;52.16;94755.47;5091958;28;20568;-46
2023/07/07 10:59:58;;;;;;;11.00;8.07;;;;;;;31.25;51.20;94756.00;5093601;28;20192;-46
2023/07/07 11:02:48;;;;;;;8.55;7.75;;;;;;;31.29;50.64;94757.06;5094432;28;20186;-47
2023/07/07 11:05:39;;;;;;;9.88;7.28;;;;;;;31.18;51.43;94756.28;5093554;28;20190;-47
2023/07/07 11:08:20;;;;;;;9.18;7.95;;;;;;;31.34;51.71;94748.34;5090081;28;20578;-46
2023/07/07 11:11:10;;;;;;;8.43;7.53;;;;;;;31.21;51.25;94752.28;5093340;28;20604;-45
2023/07/07 11:13:52;;;;;;;8.45;6.80;;;;;;;31.05;52.34;94761.31;5093324;28;20197;-45
2023/07/07 11:16:28;;;;;;;9.48;8.50;;;;;;;31.14;51.67;94754.44;5093185;28;20178;-44
2023/07/07 11:19:11;;;;;;;9.32;8.43;;;;;;;31.07;51.13;94753.91;5093417;28;20185;-45
2023/07/07 11:21:49;;;;;;;9.00;8.13;;;;;;;30.89;51.90;94749.94;5093128;28;20193;-46
2023/07/07 11:24:25;;;;;;;9.70;8.70;;;;;;;31.04;53.05;94743.84;5092844;28;20215;-46
2023/07/07 11:27:09;;;;;;;10.30;8.05;;;;;;;31.23;52.34;94758.91;5093033;28;20607;-46
2023/07/07 11:29:45;;;;;;;9.18;8.25;;;;;;;31.18;50.26;94755.50;5092548;28;20281;-46
2023/07/07 11:32:22;;;;;;;11.05;7.97;;;;;;;30.90;49.58;94764.72;5093180;28;20189;-46
2023/07/07 11:35:04;;;;;;;13.43;7.05;;;;;;;30.62;49.74;94763.34;5092685;28;20190;-47
2023/07/07 11:37:54;;;;;;;7.68;5.80;;;;;;;30.44;46.37;94762.78;5093095;28;20177;-45